sensor_id;sensor_type;location;lat;lon;timestamp;pressure;altitude;pressure_sealevel;temperature;humidity
54172;BME280;40076;52.354;4.970;2023-04-01T00:01:03;99039.13;;;10.66;100.00
54172;BME280;40076;52.354;4.970;2023-04-01T00:03:30;99044.19;;;10.68;100.00
54172;BME280;40076;52.354;4.970;2023-04-01T00:05:57;99041.47;;;10.68;100.00
54172;BME280;40076;52.354;4.970;2023-04-01T00:08:23;99045.31;;;10.67;100.00
54172;BME280;40076;52.354;4.970;2023-04-01T00:10:49;99048.03;;;10.67;100.00
54172;BME280;40076;52.354;4.970;2023-04-01T00:13:15;99043.34;;;10.64;100.00
54172;BME280;40076;52.354;4.970;2023-04-01T00:15:41;99049.09;;;10.62;100.00
54172;BME280;40076;52.354;4.970;2023-04-01T00:18:07;99048.69;;;10.60;100.00
54172;BME280;40076;52.354;4.970;2023-04-01T00:20:32;99047.13;;;10.59;100.00
54172;BME280;40076;52.354;4.970;2023-04-01T00:22:57;99051.75;;;10.59;100.00
54172;BME280;40076;52.354;4.970;2023-04-01T00:25:23;99053.25;;;10.56;100.00
54172;BME280;40076;52.354;4.970;2023-04-01T00:27:49;99053.25;;;10.56;100.00
54172;BME280;40076;52.354;4.970;2023-04-01T00:30:15;99056.38;;;10.58;100.00
54172;BME280;40076;52.354;4.970;2023-04-01T00:32:41;99061.00;;;10.58;100.00
54172;BME280;40076;52.354;4.970;2023-04-01T00:35:07;99050.19;;;10.58;100.00
54172;BME280;40076;52.354;4.970;2023-04-01T00:37:35;99050.97;;;10.58;100.00
54172;BME280;40076;52.354;4.970;2023-04-01T00:40:03;99060.69;;;10.63;100.00
54172;BME280;40076;52.354;4.970;2023-04-01T00:42:29;99052.56;;;10.63;100.00
54172;BME280;40076;52.354;4.970;2023-04-01T00:44:54;99058.41;;;10.65;100.00
54172;BME280;40076;52.354;4.970;2023-04-01T00:47:22;99059.19;;;10.65;100.00
54172;BME280;40076;52.354;4.970;2023-04-01T00:49:53;99060.31;;;10.64;100.00
54172;BME280;40076;52.354;4.970;2023-04-01T00:52:25;99054.56;;;10.66;100.00
54172;BME280;40076;52.354;4.970;2023-04-01T00:54:56;99065.00;;;10.67;100.00
54172;BME280;40076;52.354;4.970;2023-04-01T00:57:29;99059.63;;;10.67;100.00
54172;BME280;40076;52.354;4.970;2023-04-01T00:59:56;99064.22;;;10.67;100.00
54172;BME280;40076;52.354;4.970;2023-04-01T01:02:23;99064.22;;;10.67;100.00
54172;BME280;40076;52.354;4.970;2023-04-01T01:04:48;99061.16;;;10.68;100.00
54172;BME280;40076;52.354;4.970;2023-04-01T01:10:06;99061.16;;;10.68;100.00
54172;BME280;40076;52.354;4.970;2023-04-01T01:23:21;99073.81;;;10.64;100.00
54172;BME280;40076;52.354;4.970;2023-04-01T01:28:36;99077.66;;;10.63;100.00
54172;BME280;40076;52.354;4.970;2023-04-01T01:31:25;99074.19;;;10.63;100.00
54172;BME280;40076;52.354;4.970;2023-04-01T01:37:01;99080.38;;;10.63;100.00
54172;BME280;40076;52.354;4.970;2023-04-01T01:39:31;99083.84;;;10.64;100.00
54172;BME280;40076;52.354;4.970;2023-04-01T01:42:02;99087.34;;;10.64;100.00
54172;BME280;40076;52.354;4.970;2023-04-01T01:44:30;99088.91;;;10.65;100.00
54172;BME280;40076;52.354;4.970;2023-04-01T01:46:57;99093.94;;;10.67;100.00
54172;BME280;40076;52.354;4.970;2023-04-01T01:49:23;99095.88;;;10.66;100.00
54172;BME280;40076;52.354;4.970;2023-04-01T01:51:49;99102.03;;;10.67;100.00
54172;BME280;40076;52.354;4.970;2023-04-01T01:54:18;99098.56;;;10.66;100.00
54172;BME280;40076;52.354;4.970;2023-04-01T01:56:47;99104.75;;;10.67;100.00
54172;BME280;40076;52.354;4.970;2023-04-01T01:59:15;99107.06;;;10.68;100.00
54172;BME280;40076;52.354;4.970;2023-04-01T02:01:45;99108.22;;;10.67;100.00
54172;BME280;40076;52.354;4.970;2023-04-01T02:04:13;99113.63;;;10.67;100.00
54172;BME280;40076;52.354;4.970;2023-04-01T02:06:44;99116.25;;;10.64;100.00
54172;BME280;40076;52.354;4.970;2023-04-01T02:09:11;99127.84;;;10.64;100.00
54172;BME280;40076;52.354;4.970;2023-04-01T02:11:59;99131.25;;;10.61;100.00
54172;BME280;40076;52.354;4.970;2023-04-01T02:14:28;99126.25;;;10.60;100.00
54172;BME280;40076;52.354;4.970;2023-04-01T02:17:01;99131.22;;;10.58;100.00
54172;BME280;40076;52.354;4.970;2023-04-01T02:19:33;99130.44;;;10.57;100.00
54172;BME280;40076;52.354;4.970;2023-04-01T02:22:03;99136.63;;;10.58;100.00
54172;BME280;40076;52.354;4.970;2023-04-01T02:24:33;99139.66;;;10.56;100.00
54172;BME280;40076;52.354;4.970;2023-04-01T02:27:00;99145.84;;;10.57;100.00
54172;BME280;40076;52.354;4.970;2023-04-01T02:29:26;99146.63;;;10.57;100.00
54172;BME280;40076;52.354;4.970;2023-04-01T02:31:53;99146.56;;;10.54;100.00
54172;BME280;40076;52.354;4.970;2023-04-01T02:34:20;99154.66;;;10.54;100.00
54172;BME280;40076;52.354;4.970;2023-04-01T02:36:47;99157.00;;;10.55;100.00
54172;BME280;40076;52.354;4.970;2023-04-01T02:39:13;99167.03;;;10.55;100.00
54172;BME280;40076;52.354;4.970;2023-04-01T02:41:40;99167.81;;;10.55;100.00
54172;BME280;40076;52.354;4.970;2023-04-01T02:44:06;99168.16;;;10.54;100.00
54172;BME280;40076;52.354;4.970;2023-04-01T02:46:32;99169.72;;;10.55;100.00
54172;BME280;40076;52.354;4.970;2023-04-01T02:48:57;99168.94;;;10.54;100.00
54172;BME280;40076;52.354;4.970;2023-04-01T02:51:23;99172.84;;;10.57;100.00
54172;BME280;40076;52.354;4.970;2023-04-01T02:53:48;99174.78;;;10.56;100.00
54172;BME280;40076;52.354;4.970;2023-04-01T02:56:13;99182.88;;;10.56;100.00
54172;BME280;40076;52.354;4.970;2023-04-01T02:58:39;99188.28;;;10.56;100.00
54172;BME280;40076;52.354;4.970;2023-04-01T03:01:04;99189.84;;;10.57;100.00
54172;BME280;40076;52.354;4.970;2023-04-01T03:03:30;99186.00;;;10.58;100.00
54172;BME280;40076;52.354;4.970;2023-04-01T03:05:56;99195.25;;;10.57;100.00
54172;BME280;40076;52.354;4.970;2023-04-01T03:08:23;99201.44;;;10.58;100.00
54172;BME280;40076;52.354;4.970;2023-04-01T03:10:49;99204.13;;;10.58;100.00
54172;BME280;40076;52.354;4.970;2023-04-01T03:13:14;99203.00;;;10.59;100.00
54172;BME280;40076;52.354;4.970;2023-04-01T03:15:40;99203.78;;;10.59;100.00
54172;BME280;40076;52.354;4.970;2023-04-01T03:18:05;99211.09;;;10.59;100.00
54172;BME280;40076;52.354;4.970;2023-04-01T03:20:30;99213.44;;;10.60;100.00
54172;BME280;40076;52.354;4.970;2023-04-01T03:22:56;99222.31;;;10.61;100.00
54172;BME280;40076;52.354;4.970;2023-04-01T03:25:21;99227.34;;;10.62;100.00
54172;BME280;40076;52.354;4.970;2023-04-01T03:27:46;99222.38;;;10.64;100.00
54172;BME280;40076;52.354;4.970;2023-04-01T03:30:12;99234.41;;;10.67;100.00
54172;BME280;40076;52.354;4.970;2023-04-01T03:32:37;99248.69;;;10.67;100.00
54172;BME280;40076;52.354;4.970;2023-04-01T03:35:02;99256.41;;;10.69;100.00
54172;BME280;40076;52.354;4.970;2023-04-01T03:37:28;99247.19;;;10.70;100.00
54172;BME280;40076;52.354;4.970;2023-04-01T03:39:53;99257.19;;;10.69;100.00
54172;BME280;40076;52.354;4.970;2023-04-01T03:42:19;99266.09;;;10.70;100.00
54172;BME280;40076;52.354;4.970;2023-04-01T03:44:44;99266.81;;;10.67;100.00
54172;BME280;40076;52.354;4.970;2023-04-01T03:47:10;99271.84;;;10.68;100.00
54172;BME280;40076;52.354;4.970;2023-04-01T03:49:35;99274.97;;;10.70;100.00
54172;BME280;40076;52.354;4.970;2023-04-01T03:52:00;99283.09;;;10.70;100.00
54172;BME280;40076;52.354;4.970;2023-04-01T03:54:26;99285.78;;;10.70;100.00
54172;BME280;40076;52.354;4.970;2023-04-01T03:56:51;99294.31;;;10.72;100.00
54172;BME280;40076;52.354;4.970;2023-04-01T03:59:16;99291.97;;;10.71;100.00
54172;BME280;40076;52.354;4.970;2023-04-01T04:01:42;99289.69;;;10.73;100.00
54172;BME280;40076;52.354;4.970;2023-04-01T04:04:07;99300.84;;;10.71;100.00
54172;BME280;40076;52.354;4.970;2023-04-01T04:06:35;99297.38;;;10.71;100.00
54172;BME280;40076;52.354;4.970;2023-04-01T04:09:00;99299.72;;;10.72;100.00
54172;BME280;40076;52.354;4.970;2023-04-01T04:11:26;99304.34;;;10.72;100.00
54172;BME280;40076;52.354;4.970;2023-04-01T04:13:51;99304.25;;;10.68;100.00
54172;BME280;40076;52.354;4.970;2023-04-01T04:16:18;99315.50;;;10.70;100.00
54172;BME280;40076;52.354;4.970;2023-04-01T04:18:43;99319.34;;;10.69;100.00
54172;BME280;40076;52.354;4.970;2023-04-01T04:21:12;99320.47;;;10.68;100.00
54172;BME280;40076;52.354;4.970;2023-04-01T04:23:38;99329.00;;;10.70;100.00
54172;BME280;40076;52.354;4.970;2023-04-01T04:26:07;99326.66;;;10.69;100.00
54172;BME280;40076;52.354;4.970;2023-04-01T04:28:33;99335.91;;;10.68;100.00
54172;BME280;40076;52.354;4.970;2023-04-01T04:30:59;99337.84;;;10.67;100.00
54172;BME280;40076;52.354;4.970;2023-04-01T04:33:25;99345.16;;;10.67;100.00
54172;BME280;40076;52.354;4.970;2023-04-01T04:35:50;99349.00;;;10.66;100.00
54172;BME280;40076;52.354;4.970;2023-04-01T04:38:16;99356.75;;;10.67;100.00
54172;BME280;40076;52.354;4.970;2023-04-01T04:40:42;99358.28;;;10.68;100.00
54172;BME280;40076;52.354;4.970;2023-04-01T04:43:11;99361.72;;;10.65;100.00
54172;BME280;40076;52.354;4.970;2023-04-01T04:45:36;99367.91;;;10.66;100.00
54172;BME280;40076;52.354;4.970;2023-04-01T04:48:02;99366.38;;;10.68;100.00
54172;BME280;40076;52.354;4.970;2023-04-01T04:50:27;99371.38;;;10.66;100.00
54172;BME280;40076;52.354;4.970;2023-04-01T04:52:52;99375.22;;;10.65;100.00
54172;BME280;40076;52.354;4.970;2023-04-01T04:55:18;99375.66;;;10.67;100.00
54172;BME280;40076;52.354;4.970;2023-04-01T04:57:43;99384.91;;;10.66;100.00
54172;BME280;40076;52.354;4.970;2023-04-01T05:00:09;99383.75;;;10.67;100.00
54172;BME280;40076;52.354;4.970;2023-04-01T05:02:35;99386.72;;;10.62;100.00
54172;BME280;40076;52.354;4.970;2023-04-01T05:05:01;99392.84;;;10.59;100.00
54172;BME280;40076;52.354;4.970;2023-04-01T05:07:26;99396.41;;;10.63;100.00
54172;BME280;40076;52.354;4.970;2023-04-01T05:09:52;99400.22;;;10.62;100.00
54172;BME280;40076;52.354;4.970;2023-04-01T05:12:17;99408.78;;;10.64;100.00
54172;BME280;40076;52.354;4.970;2023-04-01T05:14:42;99404.94;;;10.65;100.00
54172;BME280;40076;52.354;4.970;2023-04-01T05:17:09;99419.22;;;10.66;100.00
54172;BME280;40076;52.354;4.970;2023-04-01T05:19:35;99421.59;;;10.67;100.00
54172;BME280;40076;52.354;4.970;2023-04-01T05:22:00;99429.59;;;10.64;100.00
54172;BME280;40076;52.354;4.970;2023-04-01T05:24:26;99424.19;;;10.64;100.00
54172;BME280;40076;52.354;4.970;2023-04-01T05:26:51;99428.03;;;10.63;100.00
54172;BME280;40076;52.354;4.970;2023-04-01T05:29:16;99433.00;;;10.61;100.00
54172;BME280;40076;52.354;4.970;2023-04-01T05:31:41;99437.63;;;10.60;100.00
54172;BME280;40076;52.354;4.970;2023-04-01T05:34:07;99431.06;;;10.61;100.00
54172;BME280;40076;52.354;4.970;2023-04-01T05:36:33;99440.75;;;10.62;100.00
54172;BME280;40076;52.354;4.970;2023-04-01T05:38:58;99447.28;;;10.61;100.00
54172;BME280;40076;52.354;4.970;2023-04-01T05:41:23;99444.16;;;10.59;100.00
54172;BME280;40076;52.354;4.970;2023-04-01T05:43:49;99451.50;;;10.59;100.00
54172;BME280;40076;52.354;4.970;2023-04-01T05:46:14;99461.06;;;10.56;100.00
54172;BME280;40076;52.354;4.970;2023-04-01T05:48:40;99459.16;;;10.57;100.00
54172;BME280;40076;52.354;4.970;2023-04-01T05:51:05;99473.09;;;10.59;100.00
54172;BME280;40076;52.354;4.970;2023-04-01T05:53:31;99472.66;;;10.57;100.00
54172;BME280;40076;52.354;4.970;2023-04-01T05:55:56;99481.97;;;10.59;100.00
54172;BME280;40076;52.354;4.970;2023-04-01T05:58:21;99480.06;;;10.60;100.00
54172;BME280;40076;52.354;4.970;2023-04-01T06:00:47;99487.00;;;10.61;100.00
54172;BME280;40076;52.354;4.970;2023-04-01T06:03:12;99489.72;;;10.61;100.00
54172;BME280;40076;52.354;4.970;2023-04-01T06:05:43;99493.13;;;10.58;100.00
54172;BME280;40076;52.354;4.970;2023-04-01T06:08:16;99496.97;;;10.57;100.00
54172;BME280;40076;52.354;4.970;2023-04-01T06:16:22;99503.44;;;10.52;100.00
54172;BME280;40076;52.354;4.970;2023-04-01T06:19:05;99513.44;;;10.52;100.00
54172;BME280;40076;52.354;4.970;2023-04-01T06:21:38;99517.28;;;10.51;100.00
54172;BME280;40076;52.354;4.970;2023-04-01T06:24:31;99522.22;;;10.49;100.00
54172;BME280;40076;52.354;4.970;2023-04-01T06:29:51;99533.38;;;10.47;100.00
54172;BME280;40076;52.354;4.970;2023-04-01T06:35:45;99537.22;;;10.46;100.00
54172;BME280;40076;52.354;4.970;2023-04-01T06:46:45;99550.72;;;10.46;100.00
54172;BME280;40076;52.354;4.970;2023-04-01T06:52:35;99572.31;;;10.46;100.00
54172;BME280;40076;52.354;4.970;2023-04-01T06:55:29;99569.19;;;10.44;100.00
54172;BME280;40076;52.354;4.970;2023-04-01T06:57:59;99584.97;;;10.42;100.00
54172;BME280;40076;52.354;4.970;2023-04-01T07:00:32;99582.69;;;10.44;100.00
54172;BME280;40076;52.354;4.970;2023-04-01T07:03:10;99591.22;;;10.46;100.00
54172;BME280;40076;52.354;4.970;2023-04-01T07:05:41;99594.28;;;10.44;100.00
54172;BME280;40076;52.354;4.970;2023-04-01T07:08:14;99595.09;;;10.45;100.00
54172;BME280;40076;52.354;4.970;2023-04-01T07:13:29;99604.72;;;10.46;100.00
54172;BME280;40076;52.354;4.970;2023-04-01T07:16:11;99611.69;;;10.47;100.00
54172;BME280;40076;52.354;4.970;2023-04-01T07:18:58;99624.41;;;10.47;100.00
54172;BME280;40076;52.354;4.970;2023-04-01T07:21:34;99618.22;;;10.46;100.00
54172;BME280;40076;52.354;4.970;2023-04-01T07:24:05;99625.19;;;10.47;100.00
54172;BME280;40076;52.354;4.970;2023-04-01T07:26:32;99628.69;;;10.48;100.00
54172;BME280;40076;52.354;4.970;2023-04-01T07:28:57;99635.31;;;10.50;100.00
54172;BME280;40076;52.354;4.970;2023-04-01T07:31:31;99633.41;;;10.51;100.00
54172;BME280;40076;52.354;4.970;2023-04-01T07:34:17;99635.78;;;10.52;100.00
54172;BME280;40076;52.354;4.970;2023-04-01T07:37:07;99646.19;;;10.54;100.00
54172;BME280;40076;52.354;4.970;2023-04-01T07:39:43;99651.59;;;10.54;100.00
54172;BME280;40076;52.354;4.970;2023-04-01T07:45:24;99643.50;;;10.54;100.00
54172;BME280;40076;52.354;4.970;2023-04-01T07:50:38;99663.91;;;10.51;100.00
54172;BME280;40076;52.354;4.970;2023-04-01T07:53:24;99664.44;;;10.57;100.00
54172;BME280;40076;52.354;4.970;2023-04-01T07:56:08;99662.97;;;10.59;100.00
54172;BME280;40076;52.354;4.970;2023-04-01T07:59:00;99673.75;;;10.59;100.00
54172;BME280;40076;52.354;4.970;2023-04-01T08:04:46;99676.03;;;10.57;100.00
54172;BME280;40076;52.354;4.970;2023-04-01T08:15:46;99697.13;;;10.67;100.00
54172;BME280;40076;52.354;4.970;2023-04-01T08:20:53;99707.56;;;10.69;100.00
54172;BME280;40076;52.354;4.970;2023-04-01T08:23:30;99715.78;;;10.72;100.00
54172;BME280;40076;52.354;4.970;2023-04-01T08:26:02;99716.56;;;10.73;100.00
54172;BME280;40076;52.354;4.970;2023-04-01T08:28:30;99725.81;;;10.72;100.00
54172;BME280;40076;52.354;4.970;2023-04-01T08:31:05;99719.94;;;10.70;100.00
54172;BME280;40076;52.354;4.970;2023-04-01T08:33:32;99720.41;;;10.72;100.00
54172;BME280;40076;52.354;4.970;2023-04-01T08:36:03;99730.88;;;10.73;100.00
54172;BME280;40076;52.354;4.970;2023-04-01T08:44:04;99746.81;;;10.78;100.00
54172;BME280;40076;52.354;4.970;2023-04-01T08:52:11;99749.97;;;10.80;100.00
54172;BME280;40076;52.354;4.970;2023-04-01T08:55:18;99760.06;;;10.83;100.00
54172;BME280;40076;52.354;4.970;2023-04-01T09:01:20;99765.47;;;10.83;100.00
54172;BME280;40076;52.354;4.970;2023-04-01T09:04:04;99773.25;;;10.85;100.00
54172;BME280;40076;52.354;4.970;2023-04-01T09:23:55;99790.63;;;11.00;100.00
54172;BME280;40076;52.354;4.970;2023-04-01T09:32:00;99792.81;;;11.10;100.00
54172;BME280;40076;52.354;4.970;2023-04-01T09:37:21;99798.75;;;11.15;100.00
54172;BME280;40076;52.354;4.970;2023-04-01T09:48:21;99822.47;;;11.22;100.00
54172;BME280;40076;52.354;4.970;2023-04-01T09:59:24;99831.47;;;11.26;100.00
54172;BME280;40076;52.354;4.970;2023-04-01T10:14:26;99849.28;;;11.27;100.00
54172;BME280;40076;52.354;4.970;2023-04-01T10:20:17;99855.56;;;11.31;100.00
54172;BME280;40076;52.354;4.970;2023-04-01T10:34:48;99870.16;;;11.42;100.00
54172;BME280;40076;52.354;4.970;2023-04-01T11:00:24;99883.31;;;11.59;100.00
54172;BME280;40076;52.354;4.970;2023-04-01T11:06:32;99893.19;;;11.68;100.00
54172;BME280;40076;52.354;4.970;2023-04-01T11:26:01;99919.34;;;11.76;100.00
54172;BME280;40076;52.354;4.970;2023-04-01T11:28:57;99920.56;;;11.78;100.00
54172;BME280;40076;52.354;4.970;2023-04-01T11:32:07;99927.22;;;11.81;100.00
54172;BME280;40076;52.354;4.970;2023-04-01T11:37:27;99931.13;;;11.83;100.00
54172;BME280;40076;52.354;4.970;2023-04-01T11:40:17;99941.88;;;11.80;100.00
54172;BME280;40076;52.354;4.970;2023-04-01T11:42:57;99939.25;;;11.83;100.00
54172;BME280;40076;52.354;4.970;2023-04-01T11:45:36;99943.53;;;11.84;100.00
54172;BME280;40076;52.354;4.970;2023-04-01T11:48:32;99942.84;;;11.87;100.00
54172;BME280;40076;52.354;4.970;2023-04-01T11:51:29;99949.84;;;11.88;100.00
54172;BME280;40076;52.354;4.970;2023-04-01T11:54:25;99961.53;;;11.92;100.00
54172;BME280;40076;52.354;4.970;2023-04-01T12:07:55;99972.88;;;11.98;100.00
54172;BME280;40076;52.354;4.970;2023-04-01T12:10:33;99977.16;;;11.99;100.00
54172;BME280;40076;52.354;4.970;2023-04-01T12:13:07;99975.34;;;12.03;100.00
54172;BME280;40076;52.354;4.970;2023-04-01T12:32:38;100011.41;;;12.07;100.00
54172;BME280;40076;52.354;4.970;2023-04-01T12:35:21;100012.97;;;12.08;100.00
54172;BME280;40076;52.354;4.970;2023-04-01T12:49:10;100021.44;;;12.07;100.00
54172;BME280;40076;52.354;4.970;2023-04-01T12:51:57;100032.28;;;12.07;100.00
54172;BME280;40076;52.354;4.970;2023-04-01T12:57:14;100035.34;;;12.05;100.00
54172;BME280;40076;52.354;4.970;2023-04-01T13:05:56;100045.97;;;11.98;100.00
54172;BME280;40076;52.354;4.970;2023-04-01T13:08:53;100054.53;;;12.00;100.00
54172;BME280;40076;52.354;4.970;2023-04-01T13:14:26;100064.16;;;11.97;100.00
54172;BME280;40076;52.354;4.970;2023-04-01T13:28:23;100089.03;;;11.87;100.00
54172;BME280;40076;52.354;4.970;2023-04-01T13:31:06;100089.34;;;11.86;100.00
54172;BME280;40076;52.354;4.970;2023-04-01T13:33:43;100098.28;;;11.86;100.00
54172;BME280;40076;52.354;4.970;2023-04-01T13:39:08;100102.44;;;11.84;100.00
54172;BME280;40076;52.354;4.970;2023-04-01T13:41:59;100108.56;;;11.81;100.00
54172;BME280;40076;52.354;4.970;2023-04-01T13:44:38;100104.16;;;11.76;100.00
54172;BME280;40076;52.354;4.970;2023-04-01T13:49:56;100112.97;;;11.73;100.00
54172;BME280;40076;52.354;4.970;2023-04-01T14:03:37;100139.03;;;11.66;100.00
54172;BME280;40076;52.354;4.970;2023-04-01T14:08:59;100146.69;;;11.64;100.00
54172;BME280;40076;52.354;4.970;2023-04-01T14:17:17;100162.47;;;11.61;100.00
54172;BME280;40076;52.354;4.970;2023-04-01T14:20:01;100167.56;;;11.63;100.00
54172;BME280;40076;52.354;4.970;2023-04-01T14:31:12;100180.88;;;11.56;100.00
54172;BME280;40076;52.354;4.970;2023-04-01T14:39:43;100202.31;;;11.49;100.00
54172;BME280;40076;52.354;4.970;2023-04-01T14:48:23;100215.69;;;11.45;100.00
54172;BME280;40076;52.354;4.970;2023-04-01T14:50:53;100218.41;;;11.45;100.00
54172;BME280;40076;52.354;4.970;2023-04-01T14:55:49;100225.19;;;11.39;100.00
54172;BME280;40076;52.354;4.970;2023-04-01T14:58:17;100232.16;;;11.40;100.00
54172;BME280;40076;52.354;4.970;2023-04-01T15:03:20;100241.75;;;11.38;100.00
54172;BME280;40076;52.354;4.970;2023-04-01T15:11:18;100252.47;;;11.34;100.00
54172;BME280;40076;52.354;4.970;2023-04-01T15:19:38;100266.66;;;11.31;100.00
54172;BME280;40076;52.354;4.970;2023-04-01T15:22:32;100271.25;;;11.31;100.00
54172;BME280;40076;52.354;4.970;2023-04-01T15:28:32;100278.94;;;11.29;100.00
54172;BME280;40076;52.354;4.970;2023-04-01T15:31:15;100287.06;;;11.29;100.00
54172;BME280;40076;52.354;4.970;2023-04-01T15:34:11;100291.69;;;11.28;100.00
54172;BME280;40076;52.354;4.970;2023-04-01T15:36:44;100299.44;;;11.30;100.00
54172;BME280;40076;52.354;4.970;2023-04-01T15:44:41;100311.72;;;11.27;100.00
54172;BME280;40076;52.354;4.970;2023-04-01T15:47:31;100318.91;;;11.23;100.00
54172;BME280;40076;52.354;4.970;2023-04-01T15:50:24;100325.91;;;11.24;100.00
54172;BME280;40076;52.354;4.970;2023-04-01T15:55:37;100338.66;;;11.23;100.00
54172;BME280;40076;52.354;4.970;2023-04-01T16:01:11;100353.97;;;11.19;100.00
54172;BME280;40076;52.354;4.970;2023-04-01T16:06:34;100353.19;;;11.19;100.00
54172;BME280;40076;52.354;4.970;2023-04-01T16:12:19;100371.19;;;11.15;100.00
54172;BME280;40076;52.354;4.970;2023-04-01T16:22:46;100393.09;;;11.01;100.00
54172;BME280;40076;52.354;4.970;2023-04-01T16:28:21;100399.19;;;10.98;100.00
54172;BME280;40076;52.354;4.970;2023-04-01T16:30:58;100405.91;;;10.92;100.00
54172;BME280;40076;52.354;4.970;2023-04-01T16:33:48;100407.38;;;10.90;100.00
54172;BME280;40076;52.354;4.970;2023-04-01T16:36:35;100410.88;;;10.90;100.00
54172;BME280;40076;52.354;4.970;2023-04-01T16:39:41;100415.34;;;10.86;100.00
54172;BME280;40076;52.354;4.970;2023-04-01T16:42:43;100430.19;;;10.80;100.00
54172;BME280;40076;52.354;4.970;2023-04-01T16:45:33;100441.00;;;10.80;100.00
54172;BME280;40076;52.354;4.970;2023-04-01T16:48:21;100436.91;;;10.74;100.00
54172;BME280;40076;52.354;4.970;2023-04-01T16:50:59;100453.44;;;10.72;100.00
54172;BME280;40076;52.354;4.970;2023-04-01T16:56:10;100458.56;;;10.65;100.00
54172;BME280;40076;52.354;4.970;2023-04-01T17:01:21;100475.44;;;10.62;100.00
54172;BME280;40076;52.354;4.970;2023-04-01T17:03:53;100486.25;;;10.62;100.00
54172;BME280;40076;52.354;4.970;2023-04-01T17:06:31;100482.63;;;10.58;100.00
54172;BME280;40076;52.354;4.970;2023-04-01T17:11:32;100498.25;;;10.53;100.00
54172;BME280;40076;52.354;4.970;2023-04-01T17:14:14;100503.16;;;10.51;100.00
54172;BME280;40076;52.354;4.970;2023-04-01T17:17:14;100511.13;;;10.47;100.00
54172;BME280;40076;52.354;4.970;2023-04-01T17:22:50;100523.03;;;10.46;100.00
54172;BME280;40076;52.354;4.970;2023-04-01T17:25:38;100534.03;;;10.41;100.00
54172;BME280;40076;52.354;4.970;2023-04-01T17:41:57;100570.94;;;10.28;100.00
54172;BME280;40076;52.354;4.970;2023-04-01T17:44:49;100575.38;;;10.24;100.00
54172;BME280;40076;52.354;4.970;2023-04-01T17:47:32;100585.41;;;10.24;100.00
54172;BME280;40076;52.354;4.970;2023-04-01T17:52:47;100599.22;;;10.22;100.00
54172;BME280;40076;52.354;4.970;2023-04-01T17:58:19;100605.28;;;10.19;100.00
54172;BME280;40076;52.354;4.970;2023-04-01T18:06:21;100625.75;;;10.12;100.00
54172;BME280;40076;52.354;4.970;2023-04-01T18:09:05;100636.06;;;10.10;100.00
54172;BME280;40076;52.354;4.970;2023-04-01T18:11:34;100645.94;;;10.05;100.00
54172;BME280;40076;52.354;4.970;2023-04-01T18:20:11;100666.25;;;10.03;100.00
54172;BME280;40076;52.354;4.970;2023-04-01T18:22:44;100664.50;;;9.98;100.00
54172;BME280;40076;52.354;4.970;2023-04-01T18:25:21;100667.66;;;10.00;100.00
54172;BME280;40076;52.354;4.970;2023-04-01T18:27:52;100682.75;;;10.01;100.00
54172;BME280;40076;52.354;4.970;2023-04-01T18:30:25;100690.53;;;10.03;100.00
54172;BME280;40076;52.354;4.970;2023-04-01T18:32:59;100696.56;;;10.00;100.00
54172;BME280;40076;52.354;4.970;2023-04-01T18:36:02;100706.13;;;9.97;100.00
54172;BME280;40076;52.354;4.970;2023-04-01T18:38:38;100718.81;;;9.97;100.00
54172;BME280;40076;52.354;4.970;2023-04-01T18:41:22;100715.63;;;9.95;100.00
54172;BME280;40076;52.354;4.970;2023-04-01T18:49:56;100733.56;;;9.91;100.00
54172;BME280;40076;52.354;4.970;2023-04-01T18:52:36;100747.06;;;9.91;100.00
54172;BME280;40076;52.354;4.970;2023-04-01T18:57:49;100754.69;;;9.89;100.00
54172;BME280;40076;52.354;4.970;2023-04-01T19:00:37;100767.53;;;9.83;100.00
54172;BME280;40076;52.354;4.970;2023-04-01T19:05:39;100782.44;;;9.81;100.00
54172;BME280;40076;52.354;4.970;2023-04-01T19:08:25;100793.41;;;9.76;100.00
54172;BME280;40076;52.354;4.970;2023-04-01T19:16:49;100804.00;;;9.72;100.00
54172;BME280;40076;52.354;4.970;2023-04-01T19:19:31;100807.66;;;9.67;100.00
54172;BME280;40076;52.354;4.970;2023-04-01T19:27:50;100834.16;;;9.65;100.00
54172;BME280;40076;52.354;4.970;2023-04-01T19:30:29;100838.75;;;9.65;100.00
54172;BME280;40076;52.354;4.970;2023-04-01T19:52:35;100888.59;;;9.37;100.00
54172;BME280;40076;52.354;4.970;2023-04-01T19:55:28;100895.59;;;9.38;100.00
54172;BME280;40076;52.354;4.970;2023-04-01T20:03:30;100909.81;;;9.29;100.00
54172;BME280;40076;52.354;4.970;2023-04-01T20:14:26;100944.50;;;9.22;100.00
54172;BME280;40076;52.354;4.970;2023-04-01T20:19:35;100940.31;;;9.16;100.00
54172;BME280;40076;52.354;4.970;2023-04-01T20:22:04;100945.25;;;9.14;100.00
54172;BME280;40076;52.354;4.970;2023-04-01T20:24:45;100956.63;;;9.11;100.00
54172;BME280;40076;52.354;4.970;2023-04-01T20:27:26;100966.75;;;9.06;100.00
54172;BME280;40076;52.354;4.970;2023-04-01T20:30:23;100954.78;;;8.98;100.00
54172;BME280;40076;52.354;4.970;2023-04-01T20:38:19;100980.84;;;8.89;100.00
54172;BME280;40076;52.354;4.970;2023-04-01T20:40:51;100988.63;;;8.90;100.00
54172;BME280;40076;52.354;4.970;2023-04-01T20:43:35;100986.25;;;8.89;100.00
54172;BME280;40076;52.354;4.970;2023-04-01T20:51:32;101025.97;;;8.83;100.00
54172;BME280;40076;52.354;4.970;2023-04-01T20:56:50;101022.09;;;8.76;100.00
54172;BME280;40076;52.354;4.970;2023-04-01T21:07:52;101051.34;;;8.69;100.00
54172;BME280;40076;52.354;4.970;2023-04-01T21:26:59;101086.56;;;8.59;100.00
54172;BME280;40076;52.354;4.970;2023-04-01T21:29:47;101094.94;;;8.57;100.00